Time;durP1;ratioP1;P1;durP2;ratioP2;P2;SDS_P1;SDS_P2;PMS_P1;PMS_P2;Temp;Humidity;BMP_temperature;BMP_pressure;BME280_temperature;BME280_humidity;BME280_pressure;Samples;Min_cycle;Max_cycle;Signal;HPM_P1;HPM_P2
2024/01/30 00:01:00;;;;;;;;;;;;;;;17.04;38.26;103023.53;5026310;28;1094;-48
2024/01/30 00:03:25;;;;;;;;;;;;;;;17.33;37.49;103032.19;5031070;28;1051;-49
2024/01/30 00:05:51;;;;;;;;;;;;;;;16.59;38.84;103038.13;5032889;28;1072;-46
2024/01/30 00:08:17;;;;;;;;;;;;;;;18.02;36.32;103032.25;5019851;28;1044;-50
2024/01/30 00:10:42;;;;;;;;;;;;;;;17.16;37.73;103029.16;5018858;28;1092;-47
2024/01/30 00:13:08;;;;;;;;;;;;;;;16.62;39.00;103031.38;5019532;28;1898;-45
2024/01/30 00:15:34;;;;;;;;;;;;;;;17.73;36.53;103020.00;5019445;28;1071;-48
2024/01/30 00:18:00;;;;;;;;;;;;;;;16.76;38.40;103027.47;5027727;28;1021;-48
2024/01/30 00:20:25;;;;;;;;;;;;;;;17.35;37.66;103030.06;5036560;28;1235;-46
2024/01/30 00:22:51;;;;;;;;;;;;;;;17.47;37.22;103021.09;5019129;28;1152;-45
2024/01/30 00:25:16;;;;;;;;;;;;;;;16.64;38.88;103023.75;5019057;28;1071;-47
2024/01/30 00:27:42;;;;;;;;;;;;;;;17.26;37.59;103025.91;5026709;28;1055;-49
2024/01/30 00:30:07;;;;;;;;;;;;;;;17.60;36.68;103021.81;5025798;28;1090;-49
2024/01/30 00:32:33;;;;;;;;;;;;;;;16.76;38.46;103018.41;5039361;28;1210;-50
2024/01/30 00:34:58;;;;;;;;;;;;;;;17.57;37.02;103018.66;5023517;28;1917;-49
2024/01/30 00:37:24;;;;;;;;;;;;;;;17.22;37.73;103027.41;5019140;28;1186;-48
2024/01/30 00:39:50;;;;;;;;;;;;;;;16.60;38.98;103038.97;5018948;28;1067;-48
2024/01/30 00:42:15;;;;;;;;;;;;;;;17.22;38.01;103032.91;5018523;28;1151;-49
2024/01/30 00:44:41;;;;;;;;;;;;;;;17.77;36.47;103022.06;5031731;28;1150;-50
2024/01/30 00:47:06;;;;;;;;;;;;;;;16.81;38.60;103028.72;5019025;28;1047;-48
2024/01/30 00:49:32;;;;;;;;;;;;;;;16.50;39.20;103025.69;5018282;28;1067;-47
2024/01/30 00:51:57;;;;;;;;;;;;;;;17.07;38.05;103031.34;5017914;28;1147;-47
2024/01/30 00:54:23;;;;;;;;;;;;;;;16.43;39.21;103027.63;5020719;28;1972;-47
2024/01/30 00:56:48;;;;;;;;;;;;;;;18.09;36.16;103012.88;5038303;28;1171;-44
2024/01/30 00:59:14;;;;;;;;;;;;;;;17.23;37.56;103020.88;5024451;28;1055;-47
2024/01/30 01:01:40;;;;;;;;;;;;;;;16.65;38.85;103025.44;5026343;28;1107;-49
2024/01/30 01:04:05;;;;;;;;;;;;;;;16.38;39.22;103022.81;5024465;28;1206;-48
2024/01/30 01:06:31;;;;;;;;;;;;;;;17.34;37.59;103022.88;5038541;28;1131;-47
2024/01/30 01:08:56;;;;;;;;;;;;;;;17.27;37.51;103016.59;5023632;28;1040;-46
2024/01/30 01:11:22;;;;;;;;;;;;;;;16.55;39.00;103020.41;5025498;28;1132;-48
2024/01/30 01:13:47;;;;;;;;;;;;;;;17.38;37.62;103007.63;5023913;28;1964;-50
2024/01/30 01:16:13;;;;;;;;;;;;;;;17.58;37.04;103001.09;5025613;28;1210;-47
2024/01/30 01:18:38;;;;;;;;;;;;;;;16.56;38.93;103005.63;5023599;28;1063;-48
2024/01/30 01:21:04;;;;;;;;;;;;;;;16.53;39.31;102999.72;5025939;28;1136;-48
2024/01/30 01:23:30;;;;;;;;;;;;;;;18.13;36.10;103003.94;5023262;28;1071;-50
2024/01/30 01:25:55;;;;;;;;;;;;;;;16.80;38.48;102999.56;5017618;28;996;-50
2024/01/30 01:28:21;;;;;;;;;;;;;;;16.41;39.35;103018.75;5031936;28;1306;-48
2024/01/30 01:30:46;;;;;;;;;;;;;;;16.21;39.66;103013.34;5037759;28;1127;-49
2024/01/30 01:33:14;;;;;;;;;;;;;;;17.08;38.11;103008.28;5037729;28;1906;-46
2024/01/30 01:35:40;;;;;;;;;;;;;;;16.25;39.56;102989.91;5029653;28;1138;-48
2024/01/30 01:38:05;;;;;;;;;;;;;;;17.98;36.28;102969.59;5018025;28;1012;-49
2024/01/30 01:40:31;;;;;;;;;;;;;;;17.18;37.79;102969.31;5017152;28;1127;-46
2024/01/30 01:42:56;;;;;;;;;;;;;;;16.56;39.20;102977.28;5017519;28;1114;-48
2024/01/30 01:45:22;;;;;;;;;;;;;;;16.33;39.58;102972.34;5016619;28;1093;-49
2024/01/30 01:47:49;;;;;;;;;;;;;;;17.45;37.15;102977.31;5017121;28;1550;-47
2024/01/30 01:50:15;;;;;;;;;;;;;;;16.55;39.20;102979.22;5017451;28;1025;-47
2024/01/30 01:52:40;;;;;;;;;;;;;;;17.68;36.96;102973.91;5029440;28;1069;-47
2024/01/30 01:55:06;;;;;;;;;;;;;;;17.06;37.96;102982.91;5017436;28;1965;-49
2024/01/30 01:57:32;;;;;;;;;;;;;;;16.85;38.68;102975.84;5030769;28;1116;-48
2024/01/30 01:59:57;;;;;;;;;;;;;;;18.01;36.14;102969.97;5023319;28;1591;-49
2024/01/30 02:02:23;;;;;;;;;;;;;;;16.93;38.49;102977.53;5023458;28;1127;-47
2024/01/30 02:04:48;;;;;;;;;;;;;;;17.00;38.40;102972.81;5022718;28;1065;-47
2024/01/30 02:07:14;;;;;;;;;;;;;;;17.15;38.03;102968.91;5022453;28;1080;-47
2024/01/30 02:09:39;;;;;;;;;;;;;;;16.59;38.93;102983.19;5017480;28;1108;-47
2024/01/30 02:12:05;;;;;;;;;;;;;;;17.28;37.89;102986.13;5016557;28;1250;-47
2024/01/30 02:14:30;;;;;;;;;;;;;;;17.07;38.01;102979.09;5017238;28;1966;-47
2024/01/30 02:16:56;;;;;;;;;;;;;;;16.40;39.61;102995.13;5030253;28;1015;-45
2024/01/30 02:19:22;;;;;;;;;;;;;;;17.99;36.43;102977.63;5017488;28;1189;-50
2024/01/30 02:21:47;;;;;;;;;;;;;;;16.70;38.77;102978.88;5017011;28;1127;-47
2024/01/30 02:24:13;;;;;;;;;;;;;;;16.40;39.69;102978.66;5029805;28;1194;-48
2024/01/30 02:26:38;;;;;;;;;;;;;;;17.68;36.85;102979.41;5029481;28;1079;-48
2024/01/30 02:29:04;;;;;;;;;;;;;;;16.61;39.21;102980.22;5023379;28;1028;-47
2024/01/30 02:31:29;;;;;;;;;;;;;;;17.23;37.89;102982.38;5023902;28;1003;-46
2024/01/30 02:33:55;;;;;;;;;;;;;;;17.75;36.72;102982.94;5016584;28;1910;-45
2024/01/30 02:36:20;;;;;;;;;;;;;;;16.75;38.96;102984.56;5021779;28;1051;-46
2024/01/30 02:38:46;;;;;;;;;;;;;;;17.29;37.84;102973.22;5016570;28;1044;-46
2024/01/30 02:41:11;;;;;;;;;;;;;;;17.48;37.15;102971.34;5016570;28;1052;-47
2024/01/30 02:43:37;;;;;;;;;;;;;;;16.74;38.81;102968.31;5021891;28;1156;-48
2024/01/30 02:46:03;;;;;;;;;;;;;;;18.30;36.02;102973.03;5036354;28;1423;-48
2024/01/30 02:48:28;;;;;;;;;;;;;;;17.31;37.64;102976.59;5016572;28;1113;-47
2024/01/30 02:50:54;;;;;;;;;;;;;;;16.78;38.73;102983.28;5016361;28;1039;-48
2024/01/30 02:53:19;;;;;;;;;;;;;;;16.83;38.68;102988.97;5021462;28;1910;-49
2024/01/30 02:55:45;;;;;;;;;;;;;;;17.23;38.07;102985.13;5035943;28;1143;-45
2024/01/30 02:58:10;;;;;;;;;;;;;;;16.52;39.25;102998.00;5034735;28;1159;-45
2024/01/30 03:00:36;;;;;;;;;;;;;;;18.04;36.55;102986.03;5024328;28;1032;-48
2024/01/30 03:03:02;;;;;;;;;;;;;;;17.13;38.05;102993.03;5022267;28;1127;-45
2024/01/30 03:05:27;;;;;;;;;;;;;;;16.55;39.12;103008.56;5020518;28;1317;-46
2024/01/30 03:07:53;;;;;;;;;;;;;;;16.92;38.64;103008.81;5025272;28;1123;-48
2024/01/30 03:10:18;;;;;;;;;;;;;;;18.10;36.28;102992.53;5028024;28;1541;-49
2024/01/30 03:12:44;;;;;;;;;;;;;;;16.86;38.54;103005.03;5017658;28;1039;-48
2024/01/30 03:15:09;;;;;;;;;;;;;;;17.22;38.00;103008.16;5017154;28;1906;-44
2024/01/30 03:17:36;;;;;;;;;;;;;;;17.29;37.70;103003.47;5020696;28;1040;-45
2024/01/30 03:20:03;;;;;;;;;;;;;;;16.62;38.89;103003.91;5026233;28;1051;-49
2024/01/30 03:22:29;;;;;;;;;;;;;;;16.33;39.77;102995.16;5032243;28;1028;-47
2024/01/30 03:24:54;;;;;;;;;;;;;;;17.97;36.43;103001.78;5027585;28;1139;-50
2024/01/30 03:27:20;;;;;;;;;;;;;;;17.50;37.19;102990.38;5016388;28;1099;-49
2024/01/30 03:29:45;;;;;;;;;;;;;;;16.76;39.00;103004.66;5016188;28;1071;-47
2024/01/30 03:32:11;;;;;;;;;;;;;;;17.30;38.10;102994.16;5015792;28;1079;-50
2024/01/30 03:34:36;;;;;;;;;;;;;;;17.67;37.11;102998.91;5016080;28;1898;-48
2024/01/30 03:37:02;;;;;;;;;;;;;;;16.71;38.82;102998.97;5028531;28;1031;-54
2024/01/30 03:39:27;;;;;;;;;;;;;;;18.17;36.37;103004.31;5015631;28;1032;-53
2024/01/30 03:41:53;;;;;;;;;;;;;;;17.16;38.00;102998.09;5015850;28;1179;-52
2024/01/30 03:44:18;;;;;;;;;;;;;;;16.71;38.84;102988.81;5024877;28;1048;-48
2024/01/30 03:46:44;;;;;;;;;;;;;;;18.22;35.97;102989.88;5018852;28;1096;-50
2024/01/30 03:49:09;;;;;;;;;;;;;;;17.02;38.37;102989.09;5023129;28;1004;-48
2024/01/30 03:51:35;;;;;;;;;;;;;;;18.04;36.57;102994.28;5020979;28;1019;-48
2024/01/30 03:54:00;;;;;;;;;;;;;;;17.78;36.71;102993.50;5025798;28;1965;-47
2024/01/30 03:56:26;;;;;;;;;;;;;;;16.92;38.32;102984.91;5020609;28;1123;-51
2024/01/30 03:58:51;;;;;;;;;;;;;;;17.23;38.07;102985.13;5024554;28;1131;-50
2024/01/30 04:01:17;;;;;;;;;;;;;;;17.30;37.79;102979.56;5015635;28;1059;-46
2024/01/30 04:03:43;;;;;;;;;;;;;;;16.67;39.07;102979.34;5026154;28;1049;-50
2024/01/30 04:06:09;;;;;;;;;;;;;;;16.64;39.22;102970.72;5022364;28;1139;-50
2024/01/30 04:08:35;;;;;;;;;;;;;;;17.40;37.64;102964.25;5020629;28;1175;-50
2024/01/30 04:11:06;;;;;;;;;;;;;;;16.52;39.29;102970.56;5015867;28;1056;-45
2024/01/30 04:13:32;;;;;;;;;;;;;;;17.84;36.91;102968.88;5015723;28;1898;-46
2024/01/30 04:15:59;;;;;;;;;;;;;;;17.00;38.52;102977.47;5015319;28;1040;-47
2024/01/30 04:18:24;;;;;;;;;;;;;;;16.98;38.69;102980.44;5015355;28;1055;-44
2024/01/30 04:20:50;;;;;;;;;;;;;;;17.73;36.62;102985.06;5016075;28;1215;-46
2024/01/30 04:23:15;;;;;;;;;;;;;;;16.80;38.60;102985.81;5028352;28;1043;-54
2024/01/30 04:25:41;;;;;;;;;;;;;;;16.48;39.59;102970.16;5015750;28;1031;-52
2024/01/30 04:28:07;;;;;;;;;;;;;;;17.77;36.75;102971.72;5026396;28;1134;-49
2024/01/30 04:30:32;;;;;;;;;;;;;;;16.84;38.65;102973.31;5027946;28;1066;-51
2024/01/30 04:32:58;;;;;;;;;;;;;;;16.41;39.82;102953.72;5018966;28;1135;-53
2024/01/30 04:35:24;;;;;;;;;;;;;;;17.33;37.53;102955.19;5035325;28;1922;-53
2024/01/30 04:37:51;;;;;;;;;;;;;;;16.58;39.03;102961.44;5028728;28;969;-48
2024/01/30 04:40:17;;;;;;;;;;;;;;;16.23;39.93;102976.41;5018717;28;1032;-50
2024/01/30 04:42:42;;;;;;;;;;;;;;;17.30;37.64;102972.16;5029316;28;1048;-50
2024/01/30 04:45:08;;;;;;;;;;;;;;;16.88;38.65;102986.41;5025732;28;1095;-50
2024/01/30 04:47:34;;;;;;;;;;;;;;;18.32;35.99;102984.66;5028830;28;1051;-50
2024/01/30 04:49:59;;;;;;;;;;;;;;;17.05;38.10;102980.38;5018430;28;1010;-50
2024/01/30 04:52:25;;;;;;;;;;;;;;;16.47;39.29;102992.34;5018869;28;1102;-50
2024/01/30 04:54:50;;;;;;;;;;;;;;;17.01;38.40;102984.66;5018639;28;1966;-56
2024/01/30 04:57:15;;;;;;;;;;;;;;;17.50;37.18;102993.13;5029710;28;1234;-53
2024/01/30 04:59:41;;;;;;;;;;;;;;;16.63;38.83;103004.72;5020189;28;1124;-53
2024/01/30 05:02:07;;;;;;;;;;;;;;;17.02;38.45;102995.41;5029650;28;894;-56
2024/01/30 05:04:32;;;;;;;;;;;;;;;17.04;37.99;103000.69;5037486;28;1106;-53
2024/01/30 05:06:58;;;;;;;;;;;;;;;16.36;39.46;102999.38;5026276;28;1177;-48
2024/01/30 05:09:23;;;;;;;;;;;;;;;17.04;38.33;103001.56;5021862;28;1134;-52
2024/01/30 05:11:49;;;;;;;;;;;;;;;17.88;36.59;102994.88;5026900;28;1070;-55
2024/01/30 05:14:15;;;;;;;;;;;;;;;16.76;38.85;102990.94;5022968;28;1906;-49
2024/01/30 05:16:41;;;;;;;;;;;;;;;16.33;39.65;102986.09;5029208;28;1207;-53
2024/01/30 05:19:06;;;;;;;;;;;;;;;17.25;37.89;102974.72;5037902;28;1088;-50
2024/01/30 05:21:32;;;;;;;;;;;;;;;16.64;38.72;102974.28;5037873;28;1076;-50
2024/01/30 05:23:57;;;;;;;;;;;;;;;16.32;39.66;102987.13;5019169;28;1074;-52
2024/01/30 05:26:22;;;;;;;;;;;;;;;16.02;40.18;102991.25;5029010;28;877;-49
2024/01/30 05:28:48;;;;;;;;;;;;;;;15.80;40.66;102979.69;5033141;28;1020;-47
2024/01/30 05:31:14;;;;;;;;;;;;;;;15.64;40.81;102980.97;5028983;28;1143;-51
2024/01/30 05:33:40;;;;;;;;;;;;;;;15.50;41.10;102976.53;5037746;28;1981;-51
2024/01/30 05:36:05;;;;;;;;;;;;;;;16.53;39.08;102988.72;5037288;28;1103;-46
2024/01/30 05:38:31;;;;;;;;;;;;;;;17.55;37.08;102993.31;5023288;28;1047;-48
2024/01/30 05:41:00;;;;;;;;;;;;;;;16.52;39.01;103007.13;5028884;28;1166;-48
2024/01/30 05:43:26;;;;;;;;;;;;;;;15.99;39.85;103010.03;5019169;28;1099;-50
2024/01/30 05:45:52;;;;;;;;;;;;;;;15.71;40.71;103009.22;5028914;28;981;-48
2024/01/30 05:48:17;;;;;;;;;;;;;;;15.70;40.93;103013.03;5023711;28;1119;-45
2024/01/30 05:50:43;;;;;;;;;;;;;;;17.23;37.59;103018.13;5034435;28;1056;-51
2024/01/30 05:53:08;;;;;;;;;;;;;;;16.92;37.91;103019.81;5024222;28;1215;-47
2024/01/30 05:55:34;;;;;;;;;;;;;;;16.21;39.42;103022.41;5025838;28;1918;-49
2024/01/30 05:57:59;;;;;;;;;;;;;;;15.77;40.40;103023.13;5017915;28;1075;-51
2024/01/30 06:00:25;;;;;;;;;;;;;;;15.67;41.02;103031.78;5017350;28;1084;-52
2024/01/30 06:02:50;;;;;;;;;;;;;;;17.22;37.72;103030.16;5031613;28;1083;-51
2024/01/30 06:05:16;;;;;;;;;;;;;;;16.91;37.92;103029.09;5026601;28;1234;-52
2024/01/30 06:07:42;;;;;;;;;;;;;;;16.18;39.52;103027.53;5033549;28;1357;-49
2024/01/30 06:10:08;;;;;;;;;;;;;;;15.80;40.12;103028.25;5037048;28;1099;-50
2024/01/30 06:12:34;;;;;;;;;;;;;;;15.78;40.70;103046.78;5031075;28;1059;-52
2024/01/30 06:15:00;;;;;;;;;;;;;;;17.27;37.34;103044.09;5029021;28;1979;-45
2024/01/30 06:17:25;;;;;;;;;;;;;;;17.24;37.31;103041.81;5022311;28;1100;-50
2024/01/30 06:19:51;;;;;;;;;;;;;;;16.43;39.04;103053.19;5026898;28;1119;-46
2024/01/30 06:22:16;;;;;;;;;;;;;;;16.00;39.78;103059.22;5016453;28;1150;-50
2024/01/30 06:24:44;;;;;;;;;;;;;;;15.66;40.64;103058.38;5017290;28;1147;-50
2024/01/30 06:27:10;;;;;;;;;;;;;;;16.80;38.65;103062.75;5032291;28;1193;-50
2024/01/30 06:29:35;;;;;;;;;;;;;;;17.69;36.43;103058.13;5035952;28;1122;-50
2024/01/30 06:32:01;;;;;;;;;;;;;;;16.56;38.88;103063.31;5020008;28;1272;-48
2024/01/30 06:34:26;;;;;;;;;;;;;;;16.01;39.81;103073.81;5016835;28;1953;-52
2024/01/30 06:36:52;;;;;;;;;;;;;;;15.68;40.68;103064.53;5029946;28;1142;-52
2024/01/30 06:39:18;;;;;;;;;;;;;;;16.22;39.66;103061.72;5022605;28;941;-48
2024/01/30 06:41:43;;;;;;;;;;;;;;;17.53;37.09;103055.94;5019828;28;1155;-49
2024/01/30 06:44:09;;;;;;;;;;;;;;;16.98;38.01;103057.38;5026501;28;1059;-47
2024/01/30 06:46:35;;;;;;;;;;;;;;;16.28;39.55;103062.75;5016828;28;1082;-46
2024/01/30 06:49:01;;;;;;;;;;;;;;;15.85;40.14;103061.34;5015511;28;1132;-48
2024/01/30 06:51:26;;;;;;;;;;;;;;;15.65;40.75;103064.09;5016113;28;1116;-49
2024/01/30 06:53:52;;;;;;;;;;;;;;;16.72;38.47;103074.84;5026021;28;1894;-52
2024/01/30 06:56:20;;;;;;;;;;;;;;;17.67;36.61;103065.78;5032435;28;1135;-50
2024/01/30 06:58:52;;;;;;;;;;;;;;;16.59;38.62;103067.50;5016198;28;1111;-50
2024/01/30 07:01:18;;;;;;;;;;;;;;;16.11;39.72;103056.88;5032575;28;1314;-52
2024/01/30 07:03:43;;;;;;;;;;;;;;;15.74;40.61;103074.63;5028101;28;1367;-51
2024/01/30 07:06:10;;;;;;;;;;;;;;;16.54;39.10;103073.66;5022077;28;1154;-51
2024/01/30 07:08:37;;;;;;;;;;;;;;;17.65;36.84;103073.41;5036043;28;1074;-50
2024/01/30 07:11:02;;;;;;;;;;;;;;;16.88;37.92;103068.84;5022228;28;1115;-52
2024/01/30 07:13:28;;;;;;;;;;;;;;;16.18;39.47;103074.19;5022579;28;2035;-49
2024/01/30 07:15:54;;;;;;;;;;;;;;;15.80;40.42;103074.88;5032956;28;1028;-50
2024/01/30 07:18:19;;;;;;;;;;;;;;;15.83;40.28;103067.06;5018895;28;1091;-53
2024/01/30 07:20:49;;;;;;;;;;;;;;;17.36;37.47;103081.28;5016085;28;1111;-46
2024/01/30 07:23:16;;;;;;;;;;;;;;;16.97;38.01;103080.47;5016169;28;1087;-53
2024/01/30 07:25:42;;;;;;;;;;;;;;;16.22;39.56;103075.44;5027252;28;1364;-45
2024/01/30 07:28:09;;;;;;;;;;;;;;;15.84;40.15;103084.38;5032623;28;1185;-53
2024/01/30 07:30:35;;;;;;;;;;;;;;;15.57;40.92;103073.34;5024268;28;1114;-50
2024/01/30 07:33:00;;;;;;;;;;;;;;;17.13;37.80;103067.25;5024557;28;1060;-46
2024/01/30 07:35:26;;;;;;;;;;;;;;;17.65;36.58;103059.66;5023595;28;1910;-53
2024/01/30 07:37:51;;;;;;;;;;;;;;;16.50;38.98;103066.06;5026346;28;1011;-55
2024/01/30 07:40:17;;;;;;;;;;;;;;;16.06;40.00;103066.63;5016994;28;1128;-53
2024/01/30 07:42:43;;;;;;;;;;;;;;;15.74;40.52;103060.09;5035337;28;1202;-51
2024/01/30 07:45:08;;;;;;;;;;;;;;;16.63;38.99;103059.66;5022496;28;1054;-53
2024/01/30 07:47:34;;;;;;;;;;;;;;;17.69;36.56;103055.38;5028241;28;1019;-53
2024/01/30 07:49:59;;;;;;;;;;;;;;;16.62;38.75;103053.34;5028842;28;1080;-55
2024/01/30 07:52:25;;;;;;;;;;;;;;;15.99;39.83;103049.31;5022583;28;1071;-56
2024/01/30 07:54:51;;;;;;;;;;;;;;;15.70;40.74;103045.09;5034156;28;1953;-50
2024/01/30 07:57:16;;;;;;;;;;;;;;;16.38;39.36;103058.50;5014939;28;1412;-49
2024/01/30 07:59:43;;;;;;;;;;;;;;;17.60;36.92;103065.00;5021304;28;1337;-51
2024/01/30 08:02:09;;;;;;;;;;;;;;;16.72;38.52;103066.63;5028632;28;1214;-51
2024/01/30 08:04:34;;;;;;;;;;;;;;;16.12;39.60;103066.78;5034254;28;1275;-51
2024/01/30 08:07:00;;;;;;;;;;;;;;;15.73;40.51;103067.44;5019083;28;1067;-51
2024/01/30 08:09:25;;;;;;;;;;;;;;;16.58;39.13;103071.31;5019597;28;1084;-53
2024/01/30 08:11:51;;;;;;;;;;;;;;;17.72;36.72;103071.44;5031157;28;1168;-55
2024/01/30 08:14:16;;;;;;;;;;;;;;;16.81;38.11;103080.94;5023205;28;1914;-54
2024/01/30 08:16:42;;;;;;;;;;;;;;;16.20;39.44;103067.44;5019772;28;1165;-52
2024/01/30 08:19:07;;;;;;;;;;;;;;;15.79;40.39;103071.28;5036886;28;1095;-53
2024/01/30 08:21:36;;;;;;;;;;;;;;;15.51;40.76;103064.06;5038673;28;1071;-54
2024/01/30 08:24:05;;;;;;;;;;;;;;;16.97;38.17;103074.09;5037894;28;1024;-51
2024/01/30 08:26:31;;;;;;;;;;;;;;;17.60;36.70;103070.50;5036388;28;1157;-49
2024/01/30 08:28:56;;;;;;;;;;;;;;;16.56;38.67;103070.69;5031986;28;1147;-51
2024/01/30 08:31:22;;;;;;;;;;;;;;;16.05;39.87;103073.16;5030389;28;1076;-47
2024/01/30 08:33:47;;;;;;;;;;;;;;;15.70;40.57;103070.63;5025378;28;1910;-52
2024/01/30 08:36:13;;;;;;;;;;;;;;;17.06;37.85;103076.38;5027362;28;1070;-48
2024/01/30 08:38:38;;;;;;;;;;;;;;;17.51;36.76;103069.09;5021425;28;1050;-49
2024/01/30 08:41:04;;;;;;;;;;;;;;;16.48;39.09;103073.66;5038830;28;1220;-51
2024/01/30 08:43:30;;;;;;;;;;;;;;;15.97;40.13;103073.38;5030664;28;1129;-49
2024/01/30 08:45:58;;;;;;;;;;;;;;;15.72;40.29;103082.25;5029093;28;1309;-45
2024/01/30 08:48:25;;;;;;;;;;;;;;;17.12;37.70;103090.31;5032943;28;1169;-48
2024/01/30 08:50:50;;;;;;;;;;;;;;;17.42;37.10;103083.13;5027361;28;1509;-49
2024/01/30 08:53:16;;;;;;;;;;;;;;;16.44;39.11;103084.25;5022789;28;1166;-55
2024/01/30 08:55:41;;;;;;;;;;;;;;;16.08;39.77;103091.94;5018744;28;1996;-48
2024/01/30 08:58:07;;;;;;;;;;;;;;;15.75;40.52;103089.19;5023275;28;1349;-52
2024/01/30 09:00:33;;;;;;;;;;;;;;;16.87;38.27;103091.91;5033958;28;1095;-49
2024/01/30 09:02:58;;;;;;;;;;;;;;;17.83;36.35;103075.38;5030031;28;1031;-48
2024/01/30 09:05:24;;;;;;;;;;;;;;;16.75;38.21;103082.66;5024493;28;1464;-51
2024/01/30 09:07:49;;;;;;;;;;;;;;;16.11;39.80;103073.34;5035472;28;1431;-50
2024/01/30 09:10:15;;;;;;;;;;;;;;;15.83;40.07;103078.03;5026185;28;1128;-47
2024/01/30 09:12:41;;;;;;;;;;;;;;;16.01;40.08;103073.81;5030204;28;1056;-49
2024/01/30 09:15:06;;;;;;;;;;;;;;;17.40;37.26;103071.50;5022319;28;1914;-50
2024/01/30 09:17:33;;;;;;;;;;;;;;;16.90;37.89;103065.88;5031329;28;1118;-50
2024/01/30 09:19:58;;;;;;;;;;;;;;;16.21;39.49;103071.00;5018071;28;1084;-51
2024/01/30 09:22:24;;;;;;;;;;;;;;;15.90;40.07;103069.78;5020709;28;1099;-51
2024/01/30 09:24:49;;;;;;;;;;;;;;;16.12;39.65;103073.13;5028227;28;1151;-51
2024/01/30 09:27:15;;;;;;;;;;;;;;;17.47;36.88;103065.94;5022181;28;1079;-51
2024/01/30 09:29:40;;;;;;;;;;;;;;;17.52;36.73;103060.63;5024917;28;2443;-53
2024/01/30 09:32:06;;;;;;;;;;;;;;;16.55;38.56;103060.75;5028394;28;2137;-52
2024/01/30 09:34:32;;;;;;;;;;;;;;;16.07;39.56;103049.09;5030832;28;1929;-52
2024/01/30 09:36:58;;;;;;;;;;;;;;;15.81;40.37;103043.63;5027990;28;1763;-49
2024/01/30 09:39:24;;;;;;;;;;;;;;;15.94;40.01;103046.38;5026134;28;1991;-53
2024/01/30 09:41:49;;;;;;;;;;;;;;;17.43;37.04;103059.19;5018780;28;1835;-51
2024/01/30 09:44:18;;;;;;;;;;;;;;;17.16;37.44;103051.16;5028283;28;2060;-52
2024/01/30 09:46:43;;;;;;;;;;;;;;;16.29;39.34;103040.56;5030314;28;1254;-46
2024/01/30 09:49:09;;;;;;;;;;;;;;;15.93;39.87;103049.31;5041658;28;1095;-53
2024/01/30 09:51:35;;;;;;;;;;;;;;;15.72;40.73;103043.84;5024755;28;1020;-52
2024/01/30 09:54:02;;;;;;;;;;;;;;;17.19;37.47;103052.63;5036455;28;1902;-53
2024/01/30 09:56:28;;;;;;;;;;;;;;;17.52;36.90;103046.03;5019533;28;1107;-52
2024/01/30 09:58:54;;;;;;;;;;;;;;;16.55;38.78;103041.50;5025072;28;1159;-48
2024/01/30 10:01:19;;;;;;;;;;;;;;;16.09;39.60;103048.88;5034723;28;1064;-47
2024/01/30 10:03:45;;;;;;;;;;;;;;;15.73;40.52;103037.28;5029349;28;1239;-47
2024/01/30 10:06:11;;;;;;;;;;;;;;;16.89;38.05;103036.75;5026765;28;1087;-48
2024/01/30 10:08:37;;;;;;;;;;;;;;;17.75;36.31;103021.47;5032460;28;1042;-51
2024/01/30 10:11:03;;;;;;;;;;;;;;;16.60;38.53;103025.25;5027753;28;1039;-49
2024/01/30 10:13:29;;;;;;;;;;;;;;;16.05;39.90;103020.16;5020086;28;2371;-50
2024/01/30 10:15:55;;;;;;;;;;;;;;;15.77;40.25;103015.75;5025920;28;1065;-48
2024/01/30 10:18:22;;;;;;;;;;;;;;;16.37;39.14;103020.28;5033309;28;1086;-48
2024/01/30 10:20:48;;;;;;;;;;;;;;;17.60;36.83;103009.97;5017916;28;1063;-49
2024/01/30 10:23:13;;;;;;;;;;;;;;;16.86;37.90;103005.03;5027840;28;1184;-47
2024/01/30 10:25:39;;;;;;;;;;;;;;;16.20;39.53;103006.16;5015431;28;1241;-49
2024/01/30 10:28:04;;;;;;;;;;;;;;;15.80;40.04;103001.66;5023929;28;1020;-45
2024/01/30 10:30:30;;;;;;;;;;;;;;;15.71;40.60;103009.22;5025571;28;1163;-49
2024/01/30 10:32:55;;;;;;;;;;;;;;;17.21;37.39;103010.09;5034002;28;1079;-47
2024/01/30 10:35:21;;;;;;;;;;;;;;;17.34;37.06;102992.63;5025377;28;1906;-47
2024/01/30 10:37:49;;;;;;;;;;;;;;;16.38;39.17;103010.97;5033057;28;1101;-48
2024/01/30 10:40:15;;;;;;;;;;;;;;;15.94;39.75;103001.63;5016735;28;1051;-50
2024/01/30 10:42:44;;;;;;;;;;;;;;;15.70;40.27;103003.97;5024744;28;1206;-52
2024/01/30 10:45:13;;;;;;;;;;;;;;;16.85;38.42;102999.75;5017463;28;2423;-50
2024/01/30 10:47:43;;;;;;;;;;;;;;;17.58;36.84;103001.09;5035974;28;1046;-49
2024/01/30 10:50:10;;;;;;;;;;;;;;;16.50;38.93;103009.22;5019760;28;1046;-51
2024/01/30 10:52:36;;;;;;;;;;;;;;;16.02;39.73;103004.97;5026269;28;897;-51
2024/01/30 10:55:01;;;;;;;;;;;;;;;15.71;40.33;103003.75;5033271;28;1989;-52
2024/01/30 10:57:27;;;;;;;;;;;;;;;16.43;38.92;103009.25;5031518;28;1420;-50
2024/01/30 10:59:53;;;;;;;;;;;;;;;17.57;36.66;103007.66;5016424;28;1482;-55
2024/01/30 11:02:19;;;;;;;;;;;;;;;16.77;38.25;103000.84;5016408;28;1126;-52
2024/01/30 11:04:45;;;;;;;;;;;;;;;16.15;39.60;103008.75;5024891;28;1148;-51
2024/01/30 11:07:15;;;;;;;;;;;;;;;15.79;40.36;103005.44;5029336;28;1368;-52
2024/01/30 11:09:41;;;;;;;;;;;;;;;15.77;40.29;103004.78;5036954;28;1118;-51
2024/01/30 11:12:11;;;;;;;;;;;;;;;17.29;37.27;103008.97;5033852;28;983;-51
2024/01/30 11:14:37;;;;;;;;;;;;;;;17.27;37.03;102994.59;5015914;28;2575;-49
2024/01/30 11:17:03;;;;;;;;;;;;;;;16.33;39.05;102997.91;5026781;28;1056;-52
2024/01/30 11:19:30;;;;;;;;;;;;;;;15.92;40.03;102999.06;5014347;28;1010;-56
2024/01/30 11:21:57;;;;;;;;;;;;;;;15.66;40.67;103000.78;5023437;28;1131;-50
2024/01/30 11:24:22;;;;;;;;;;;;;;;16.50;39.04;102997.41;5027404;28;1139;-53
2024/01/30 11:26:49;;;;;;;;;;;;;;;17.63;36.79;102982.00;5028443;28;1021;-52
2024/01/30 11:29:15;;;;;;;;;;;;;;;16.73;38.13;102978.47;5028616;28;861;-48
2024/01/30 11:31:51;;;;;;;;;;;;;;;16.13;39.63;102994.38;5035922;28;1144;-53
2024/01/30 11:34:16;;;;;;;;;;;;;;;15.77;40.30;102982.84;5035533;28;1973;-50
2024/01/30 11:36:42;;;;;;;;;;;;;;;15.54;40.79;102986.03;5025293;28;1096;-56
2024/01/30 11:39:07;;;;;;;;;;;;;;;17.03;37.78;102985.28;5028593;28;1104;-56
2024/01/30 11:41:33;;;;;;;;;;;;;;;17.72;36.49;102975.13;5034167;28;1052;-52
2024/01/30 11:43:58;;;;;;;;;;;;;;;16.58;38.67;102980.69;5035205;28;2018;-53
2024/01/30 11:46:24;;;;;;;;;;;;;;;16.14;39.54;102977.69;5022971;28;1061;-56
2024/01/30 11:48:50;;;;;;;;;;;;;;;15.81;40.40;102980.53;5039044;28;1444;-53
2024/01/30 11:51:19;;;;;;;;;;;;;;;17.19;37.48;102972.88;5026710;28;1198;-52
2024/01/30 11:53:44;;;;;;;;;;;;;;;17.23;37.41;102965.88;5032561;28;1969;-53
2024/01/30 11:56:10;;;;;;;;;;;;;;;16.32;39.05;102979.72;5022827;28;1222;-53
2024/01/30 11:58:35;;;;;;;;;;;;;;;16.01;39.68;102970.34;5043147;28;1249;-52
2024/01/30 12:01:01;;;;;;;;;;;;;;;15.74;40.59;102972.31;5027809;28;1063;-52
2024/01/30 12:03:26;;;;;;;;;;;;;;;17.22;37.38;102958.69;5036585;28;1037;-50
2024/01/30 12:05:56;;;;;;;;;;;;;;;17.22;37.38;102958.69;5033450;28;895;-53
2024/01/30 12:08:22;;;;;;;;;;;;;;;16.35;38.88;102962.81;5034155;28;1062;-53
2024/01/30 12:10:55;;;;;;;;;;;;;;;15.95;39.87;102954.75;5018361;28;1059;-55
2024/01/30 12:13:20;;;;;;;;;;;;;;;16.26;39.40;102966.88;5025378;28;1000;-55
2024/01/30 12:15:45;;;;;;;;;;;;;;;17.57;36.83;102960.91;5019374;28;2349;-52
2024/01/30 12:18:11;;;;;;;;;;;;;;;16.79;38.22;102960.25;5026370;28;1120;-51
2024/01/30 12:20:37;;;;;;;;;;;;;;;16.18;39.52;102958.91;5025985;28;1118;-53
2024/01/30 12:23:02;;;;;;;;;;;;;;;15.87;40.14;102963.22;5029855;28;1162;-50
2024/01/30 12:25:28;;;;;;;;;;;;;;;15.66;40.86;102962.38;5030939;28;1028;-47
2024/01/30 12:27:54;;;;;;;;;;;;;;;17.01;38.12;102962.66;5031419;28;1092;-48
2024/01/30 12:30:20;;;;;;;;;;;;;;;17.67;36.71;102952.13;5031167;28;888;-52
2024/01/30 12:32:46;;;;;;;;;;;;;;;16.51;38.63;102957.88;5038314;28;1019;-54
2024/01/30 12:35:15;;;;;;;;;;;;;;;16.00;40.04;102952.19;5025902;28;1914;-51
2024/01/30 12:37:40;;;;;;;;;;;;;;;15.72;40.53;102956.06;5038615;28;1135;-52
2024/01/30 12:40:07;;;;;;;;;;;;;;;16.94;38.14;102957.22;5037467;28;1154;-55